Time;durP1;ratioP1;P1;durP2;ratioP2;P2;SDS_P1;SDS_P2;PMS_P1;PMS_P2;Temp;Humidity;BMP_temperature;BMP_pressure;BME280_temperature;BME280_humidity;BME280_pressure;Samples;Min_cycle;Max_cycle;Signal;HPM_P1;HPM_P2
2022/03/31 00:01:22;;;;;;;17.33;11.70;;;7.90;99.90;;;;;;5037221;28;20060;-65
2022/03/31 00:03:49;;;;;;;20.02;12.80;;;7.50;99.90;;;;;;5038343;28;20029;-68
2022/03/31 00:06:16;;;;;;;16.85;12.02;;;7.60;99.90;;;;;;5075068;28;20036;-63
2022/03/31 00:08:42;;;;;;;18.27;11.45;;;7.60;99.90;;;;;;5075025;28;20489;-66
2022/03/31 00:11:08;;;;;;;17.73;11.82;;;7.50;99.90;;;;;;5074376;28;20036;-63
2022/03/31 00:13:34;;;;;;;17.70;11.82;;;7.60;99.90;;;;;;5074765;28;20483;-65
2022/03/31 00:16:00;;;;;;;18.60;11.90;;;7.80;99.90;;;;;;5074383;28;20075;-64
2022/03/31 00:18:29;;;;;;;18.08;12.20;;;7.90;99.90;;;;;;5075030;28;20028;-64
2022/03/31 00:20:56;;;;;;;17.90;12.15;;;7.70;99.90;;;;;;5057174;28;20035;-64
2022/03/31 00:23:22;;;;;;;18.95;13.23;;;7.60;99.90;;;;;;5074816;28;20108;-64
2022/03/31 00:25:48;;;;;;;20.45;13.00;;;7.30;99.90;;;;;;5056548;28;20028;-66
2022/03/31 00:28:14;;;;;;;20.50;11.88;;;7.50;99.90;;;;;;5055973;28;20029;-66
2022/03/31 00:30:41;;;;;;;20.00;12.95;;;7.50;99.90;;;;;;5073568;28;20123;-67
2022/03/31 00:33:07;;;;;;;20.05;13.13;;;7.60;99.90;;;;;;5055241;28;20136;-65
2022/03/31 00:35:34;;;;;;;17.63;12.30;;;7.80;99.90;;;;;;5073000;28;20115;-64
2022/03/31 00:38:00;;;;;;;17.25;12.13;;;7.70;99.90;;;;;;5054520;28;20032;-64
2022/03/31 00:40:27;;;;;;;20.25;14.20;;;7.80;99.90;;;;;;5072001;28;20033;-64
2022/03/31 00:42:55;;;;;;;16.92;12.27;;;7.70;99.90;;;;;;5054622;28;20021;-66
2022/03/31 00:45:24;;;;;;;18.35;11.63;;;7.60;99.90;;;;;;5072796;28;20028;-65
2022/03/31 00:47:54;;;;;;;18.45;11.52;;;7.70;99.90;;;;;;5054411;28;20498;-65
2022/03/31 00:50:25;;;;;;;16.20;11.33;;;7.60;99.90;;;;;;5055872;28;20029;-63
2022/03/31 00:52:51;;;;;;;16.63;11.18;;;7.50;99.90;;;;;;5072456;28;20128;-63
2022/03/31 00:55:19;;;;;;;18.13;12.55;;;7.60;99.90;;;;;;5054843;28;20082;-64
2022/03/31 00:57:47;;;;;;;15.93;11.43;;;7.60;99.90;;;;;;5054256;28;20067;-65
2022/03/31 01:00:17;;;;;;;17.60;12.73;;;7.50;99.90;;;;;;5072434;28;20044;-64
2022/03/31 01:02:45;;;;;;;17.73;10.85;;;7.50;99.90;;;;;;5054890;28;20074;-63
2022/03/31 01:05:14;;;;;;;16.92;12.10;;;7.60;99.90;;;;;;5071677;28;20020;-64
2022/03/31 01:07:41;;;;;;;16.30;11.75;;;7.40;99.90;;;;;;5054313;28;20036;-64
2022/03/31 01:10:11;;;;;;;18.42;11.25;;;7.50;99.90;;;;;;5072009;28;20036;-65
2022/03/31 01:12:37;;;;;;;18.85;12.35;;;7.60;99.90;;;;;;5073156;28;20036;-63
2022/03/31 01:15:07;;;;;;;17.38;11.45;;;7.70;99.90;;;;;;5071857;28;20119;-62
2022/03/31 01:17:39;;;;;;;17.95;11.73;;;7.70;99.90;;;;;;5073063;28;20040;-65
2022/03/31 01:20:08;;;;;;;19.27;13.00;;;7.70;99.90;;;;;;5072620;28;20020;-65
2022/03/31 01:22:34;;;;;;;16.95;12.00;;;7.70;99.90;;;;;;5072992;28;20028;-65
2022/03/31 01:25:02;;;;;;;17.27;12.65;;;7.80;99.90;;;;;;5072378;28;20111;-64
2022/03/31 01:27:29;;;;;;;20.42;12.48;;;7.90;99.90;;;;;;5054571;28;20478;-63
2022/03/31 01:29:55;;;;;;;18.25;12.02;;;7.90;99.90;;;;;;5037401;28;20032;-64
2022/03/31 01:32:22;;;;;;;20.98;13.50;;;7.80;99.90;;;;;;5072552;28;20036;-65
2022/03/31 01:34:52;;;;;;;18.80;12.18;;;7.60;99.90;;;;;;5072297;28;20024;-63
2022/03/31 01:37:17;;;;;;;16.95;11.52;;;7.60;99.90;;;;;;5072474;28;20039;-63
2022/03/31 01:39:43;;;;;;;20.25;12.15;;;7.70;99.90;;;;;;5054427;28;20028;-64
2022/03/31 01:42:09;;;;;;;17.52;12.02;;;7.70;99.90;;;;;;5072026;28;20278;-63
2022/03/31 01:44:36;;;;;;;19.80;12.52;;;7.60;99.90;;;;;;5037799;28;20029;-65
2022/03/31 01:47:03;;;;;;;20.67;12.70;;;7.70;99.90;;;;;;5053992;28;20029;-64
2022/03/31 01:49:29;;;;;;;17.85;12.48;;;7.70;99.90;;;;;;5072197;28;20037;-67
2022/03/31 01:51:54;;;;;;;17.60;12.57;;;7.70;99.90;;;;;;5054687;28;20354;-63
2022/03/31 01:54:24;;;;;;;18.38;11.75;;;7.90;99.90;;;;;;5076317;28;20021;-64
2022/03/31 01:56:50;;;;;;;18.33;11.98;;;7.90;99.90;;;;;;5058655;28;20031;-64
2022/03/31 01:59:16;;;;;;;20.08;12.15;;;7.90;99.90;;;;;;5076223;28;20071;-66
2022/03/31 02:01:41;;;;;;;20.73;12.65;;;7.90;99.90;;;;;;5059175;28;20490;-64
2022/03/31 02:04:11;;;;;;;18.15;11.55;;;7.70;99.90;;;;;;5059364;28;20025;-64
2022/03/31 02:06:38;;;;;;;19.67;12.68;;;7.90;99.90;;;;;;5060913;28;20120;-66
2022/03/31 02:09:04;;;;;;;17.92;11.38;;;7.90;99.90;;;;;;5078190;28;20595;-69
2022/03/31 02:11:32;;;;;;;18.42;12.18;;;7.90;99.90;;;;;;5078690;28;20083;-68
2022/03/31 02:13:58;;;;;;;17.77;11.43;;;8.00;99.90;;;;;;5059705;28;20123;-63
2022/03/31 02:16:24;;;;;;;20.63;12.63;;;7.90;99.90;;;;;;5059336;28;20120;-66
2022/03/31 02:18:52;;;;;;;17.83;12.32;;;7.80;99.90;;;;;;5058568;28;20036;-65
2022/03/31 02:21:21;;;;;;;20.60;11.98;;;7.70;99.90;;;;;;5075937;28;20355;-70
2022/03/31 02:23:47;;;;;;;16.88;12.07;;;7.50;99.90;;;;;;5075737;28;20025;-64
2022/03/31 02:26:13;;;;;;;18.85;12.48;;;7.50;99.90;;;;;;5057457;28;20028;-65
2022/03/31 02:28:39;;;;;;;23.20;14.25;;;7.50;99.90;;;;;;5076044;28;20085;-63
2022/03/31 02:31:07;;;;;;;18.67;12.60;;;7.60;99.90;;;;;;5056944;28;20060;-63
2022/03/31 02:33:33;;;;;;;18.83;13.15;;;7.60;99.90;;;;;;5076056;28;20036;-66
2022/03/31 02:36:04;;;;;;;22.20;12.75;;;7.50;99.90;;;;;;5057114;28;20369;-63
2022/03/31 02:38:33;;;;;;;21.90;14.40;;;7.40;99.90;;;;;;5057624;28;20036;-64
2022/03/31 02:40:59;;;;;;;18.48;11.57;;;7.40;99.90;;;;;;5057415;28;20040;-66
2022/03/31 02:43:25;;;;;;;19.30;12.18;;;7.60;99.90;;;;;;5057645;28;20500;-69
2022/03/31 02:45:51;;;;;;;19.10;12.55;;;7.50;99.90;;;;;;5075897;28;20390;-70
2022/03/31 02:48:16;;;;;;;19.55;12.52;;;7.50;99.90;;;;;;5058260;28;20028;-65
2022/03/31 02:50:42;;;;;;;20.73;12.48;;;7.60;99.90;;;;;;5058441;28;20032;-64
2022/03/31 02:55:52;;;;;;;21.70;12.27;;;7.60;99.90;;;;;;5075336;28;20078;-63
2022/03/31 02:58:18;;;;;;;19.35;12.57;;;7.60;99.90;;;;;;5052844;28;20052;-63
2022/03/31 03:00:44;;;;;;;19.67;12.23;;;7.50;99.90;;;;;;5054939;28;20110;-63
2022/03/31 03:03:11;;;;;;;21.98;13.40;;;7.50;99.90;;;;;;5052214;28;20463;-63
2022/03/31 03:05:37;;;;;;;20.52;13.63;;;7.50;99.90;;;;;;5053200;28;20423;-69
2022/03/31 03:08:06;;;;;;;17.17;12.10;;;7.60;99.90;;;;;;5052813;28;20032;-64
2022/03/31 03:10:32;;;;;;;18.88;11.25;;;7.70;99.90;;;;;;5053426;28;20033;-64
2022/03/31 03:12:58;;;;;;;20.67;13.48;;;7.60;99.90;;;;;;5053144;28;20025;-66
2022/03/31 03:15:27;;;;;;;16.65;11.63;;;7.60;99.90;;;;;;5054544;28;20025;-63
2022/03/31 03:17:55;;;;;;;17.98;11.80;;;7.60;99.90;;;;;;5053459;28;20219;-64
2022/03/31 03:20:24;;;;;;;21.20;12.00;;;7.60;99.90;;;;;;5054896;28;20032;-66
2022/03/31 03:22:52;;;;;;;19.67;11.20;;;7.60;99.90;;;;;;5053583;28;20033;-68
2022/03/31 03:25:25;;;;;;;22.63;14.15;;;7.50;99.90;;;;;;5054318;28;20044;-69
2022/03/31 03:27:52;;;;;;;21.35;13.27;;;7.50;99.90;;;;;;5054139;28;20033;-65
2022/03/31 03:30:20;;;;;;;21.33;13.35;;;7.60;99.90;;;;;;5053491;28;20071;-65
2022/03/31 03:32:50;;;;;;;19.83;12.52;;;7.60;99.90;;;;;;5053440;28;20036;-63
2022/03/31 03:35:17;;;;;;;26.95;12.63;;;7.60;99.90;;;;;;5052409;28;20422;-64
2022/03/31 03:37:44;;;;;;;21.05;12.50;;;7.40;99.90;;;;;;5054114;28;20025;-64
2022/03/31 03:40:15;;;;;;;18.85;12.52;;;7.40;99.90;;;;;;5052904;28;20470;-64
2022/03/31 03:42:41;;;;;;;20.83;12.55;;;7.30;99.90;;;;;;5053186;28;20025;-64
2022/03/31 03:45:11;;;;;;;19.92;13.10;;;7.40;99.90;;;;;;5052453;28;20075;-63
2022/03/31 03:47:38;;;;;;;22.17;12.85;;;7.40;99.90;;;;;;5054429;28;20072;-63
2022/03/31 03:50:07;;;;;;;17.02;12.30;;;7.40;99.90;;;;;;5055417;28;20032;-64
2022/03/31 03:52:34;;;;;;;18.13;12.52;;;7.40;99.90;;;;;;5055833;28;20029;-67
2022/03/31 03:55:00;;;;;;;20.88;13.55;;;7.40;99.90;;;;;;5054189;28;20063;-64
2022/03/31 03:57:26;;;;;;;19.80;12.90;;;7.40;99.90;;;;;;5058655;28;20070;-63
2022/03/31 03:59:52;;;;;;;21.85;13.90;;;7.40;99.90;;;;;;5056979;28;20025;-62
2022/03/31 04:02:18;;;;;;;21.23;12.50;;;7.40;99.90;;;;;;5055771;28;20031;-65
2022/03/31 04:04:45;;;;;;;19.17;12.90;;;7.40;99.90;;;;;;5074554;28;20028;-63
2022/03/31 04:07:12;;;;;;;20.40;11.88;;;7.50;99.90;;;;;;5055204;28;20123;-62
2022/03/31 04:09:38;;;;;;;27.38;13.48;;;7.50;99.90;;;;;;5056210;28;20072;-63
2022/03/31 04:12:05;;;;;;;19.00;12.65;;;7.60;99.90;;;;;;5055999;28;20027;-68
2022/03/31 04:14:31;;;;;;;22.33;12.95;;;7.60;99.90;;;;;;5074831;28;20381;-64
2022/03/31 04:16:58;;;;;;;19.45;11.55;;;7.40;99.90;;;;;;5056137;28;20024;-76
2022/03/31 04:19:25;;;;;;;22.40;12.30;;;7.30;99.90;;;;;;5055756;28;20024;-71
2022/03/31 04:21:54;;;;;;;20.33;13.23;;;7.40;99.90;;;;;;5074535;28;20035;-69
2022/03/31 04:24:22;;;;;;;23.65;13.32;;;7.20;99.90;;;;;;5055867;28;20032;-65
2022/03/31 04:26:50;;;;;;;20.67;12.90;;;7.20;99.90;;;;;;5055825;28;20066;-63
2022/03/31 04:29:18;;;;;;;24.20;13.63;;;7.20;99.90;;;;;;5072622;28;20029;-65
2022/03/31 04:31:45;;;;;;;21.30;12.75;;;7.20;99.90;;;;;;5056065;28;20032;-65
2022/03/31 04:34:14;;;;;;;19.48;13.00;;;7.20;99.90;;;;;;5073431;28;20025;-64
2022/03/31 04:36:41;;;;;;;18.42;12.07;;;7.20;99.90;;;;;;5060184;28;20071;-64
2022/03/31 04:39:07;;;;;;;25.60;13.27;;;7.20;99.90;;;;;;5052968;28;20036;-67
2022/03/31 04:41:33;;;;;;;20.45;12.32;;;7.10;99.90;;;;;;5054036;28;20025;-63
2022/03/31 04:43:59;;;;;;;22.75;12.98;;;7.20;99.90;;;;;;5035719;28;20094;-71
2022/03/31 04:46:25;;;;;;;21.38;14.00;;;7.10;99.90;;;;;;5035873;28;20035;-64
2022/03/31 04:48:51;;;;;;;21.85;12.68;;;7.10;99.90;;;;;;5053358;28;20037;-64
2022/03/31 04:51:18;;;;;;;20.13;13.18;;;7.10;99.90;;;;;;5035806;28;20051;-63
2022/03/31 04:53:44;;;;;;;21.98;13.30;;;7.10;99.90;;;;;;5054927;28;20053;-64
2022/03/31 04:56:10;;;;;;;22.13;12.63;;;7.20;99.90;;;;;;5054651;28;20028;-64
2022/03/31 04:58:37;;;;;;;24.00;13.35;;;7.20;99.90;;;;;;5037129;28;20057;-65
2022/03/31 05:01:04;;;;;;;20.60;12.95;;;7.10;99.90;;;;;;5036919;28;20064;-67
2022/03/31 05:03:30;;;;;;;20.30;13.63;;;7.00;99.90;;;;;;5036848;28;20116;-64
2022/03/31 05:05:56;;;;;;;22.10;13.32;;;7.00;99.90;;;;;;5059675;28;20031;-67
2022/03/31 05:08:21;;;;;;;24.83;15.82;;;7.00;99.90;;;;;;5056042;28;20481;-64
2022/03/31 05:10:47;;;;;;;20.60;13.38;;;7.10;99.90;;;;;;5056521;28;20122;-62
2022/03/31 05:13:13;;;;;;;24.40;13.82;;;7.10;99.90;;;;;;5055162;28;20385;-63
2022/03/31 05:15:39;;;;;;;24.08;13.93;;;7.10;99.90;;;;;;5055735;28;20086;-63
2022/03/31 05:18:05;;;;;;;22.15;13.50;;;7.10;99.90;;;;;;5072608;28;20032;-65
2022/03/31 05:20:32;;;;;;;21.50;14.30;;;7.00;99.90;;;;;;5073130;28;20040;-72
2022/03/31 05:22:58;;;;;;;20.33;12.90;;;7.00;99.90;;;;;;5073479;28;20027;-64
2022/03/31 05:25:24;;;;;;;20.33;13.88;;;7.00;99.90;;;;;;5055021;28;20028;-64
2022/03/31 05:27:51;;;;;;;21.17;14.10;;;7.00;99.90;;;;;;5058093;28;20111;-64
2022/03/31 05:30:19;;;;;;;21.17;13.85;;;7.00;99.90;;;;;;5076506;28;20044;-65
2022/03/31 05:32:46;;;;;;;28.98;14.10;;;7.00;99.90;;;;;;5059519;28;20032;-67
2022/03/31 05:35:13;;;;;;;19.63;12.73;;;7.00;99.90;;;;;;5076604;28;20016;-63
2022/03/31 05:37:40;;;;;;;22.77;14.27;;;7.10;99.90;;;;;;5040098;28;20029;-64
2022/03/31 05:40:07;;;;;;;22.23;12.77;;;7.10;99.90;;;;;;5055768;28;20025;-64
2022/03/31 05:42:36;;;;;;;21.23;13.52;;;7.10;99.90;;;;;;5057600;28;20458;-69
2022/03/31 05:45:04;;;;;;;22.58;13.73;;;7.10;99.90;;;;;;5056975;28;20029;-66
2022/03/31 05:47:30;;;;;;;22.45;13.10;;;7.00;99.90;;;;;;5038644;28;20032;-65
2022/03/31 05:49:56;;;;;;;20.77;13.82;;;7.10;99.90;;;;;;5038960;28;20029;-64
2022/03/31 05:52:23;;;;;;;23.98;14.55;;;7.00;99.90;;;;;;5038416;28;20021;-66
2022/03/31 05:54:50;;;;;;;22.27;13.23;;;7.00;99.90;;;;;;5039426;28;20025;-67
2022/03/31 05:57:17;;;;;;;26.75;14.18;;;7.00;99.90;;;;;;5056209;28;20077;-70
2022/03/31 05:59:43;;;;;;;23.80;14.10;;;7.10;99.90;;;;;;5039111;28;20025;-66
2022/03/31 06:02:11;;;;;;;23.42;13.57;;;7.00;99.90;;;;;;5039267;28;20029;-63
2022/03/31 06:04:38;;;;;;;20.77;13.00;;;7.00;99.90;;;;;;5038363;28;20390;-67
2022/03/31 06:07:05;;;;;;;24.23;13.50;;;7.20;99.90;;;;;;5037793;28;20029;-71
2022/03/31 06:09:31;;;;;;;18.98;13.73;;;7.10;99.90;;;;;;5056745;28;20037;-65
2022/03/31 06:11:57;;;;;;;23.80;14.02;;;7.20;99.90;;;;;;5056961;28;20033;-64
2022/03/31 06:14:40;;;;;;;28.95;15.82;;;7.20;99.90;;;;;;5038794;28;20025;-64
2022/03/31 06:17:19;;;;;;;24.20;13.90;;;7.20;99.90;;;;;;5045684;28;20658;-65
2022/03/31 06:19:45;;;;;;;32.78;15.55;;;7.10;99.90;;;;;;5055727;28;20032;-68
2022/03/31 06:22:13;;;;;;;25.00;13.60;;;7.30;99.90;;;;;;5040403;28;20029;-68
2022/03/31 06:24:40;;;;;;;23.38;13.43;;;7.30;99.90;;;;;;5033970;28;20072;-69
2022/03/31 06:27:12;;;;;;;20.70;14.45;;;7.30;99.90;;;;;;5051395;28;20029;-66
2022/03/31 06:29:45;;;;;;;26.27;15.15;;;7.30;99.90;;;;;;5033576;28;20029;-67
2022/03/31 06:32:12;;;;;;;;;;;7.30;99.90;;;;;;5052385;28;20027;-70
2022/03/31 06:34:41;;;;;;;34.83;13.93;;;7.40;99.90;;;;;;5051993;28;19962;-67
2022/03/31 06:37:10;;;;;;;25.73;14.70;;;7.50;99.90;;;;;;5051229;28;20029;-64
2022/03/31 06:39:36;;;;;;;22.83;14.23;;;7.40;99.90;;;;;;5060075;28;20494;-69
2022/03/31 06:42:04;;;;;;;28.55;16.38;;;7.20;99.90;;;;;;5069721;28;20031;-65
2022/03/31 06:44:32;;;;;;;20.90;12.95;;;7.20;99.90;;;;;;5067790;28;20035;-68
2022/03/31 06:46:59;;;;;;;23.85;13.73;;;7.30;99.90;;;;;;5055920;28;20474;-64
2022/03/31 06:49:28;;;;;;;22.40;13.38;;;7.30;99.90;;;;;;5054024;28;20372;-66
2022/03/31 06:51:55;;;;;;;19.23;13.60;;;7.40;99.90;;;;;;5057830;28;20077;-65
2022/03/31 06:54:21;;;;;;;23.27;14.63;;;7.40;99.90;;;;;;5065996;28;20447;-62
2022/03/31 06:56:48;;;;;;;22.55;13.65;;;7.40;99.90;;;;;;5075358;28;20107;-64
2022/03/31 06:59:14;;;;;;;22.27;14.13;;;7.40;99.90;;;;;;5046788;28;20124;-66
2022/03/31 07:01:41;;;;;;;22.92;13.48;;;7.40;99.90;;;;;;5049001;28;20605;-63
2022/03/31 07:04:10;;;;;;;21.60;13.18;;;7.60;99.90;;;;;;5041781;28;20068;-72
2022/03/31 07:06:36;;;;;;;21.80;14.10;;;7.60;99.90;;;;;;5046433;28;20032;-65
2022/03/31 07:09:03;;;;;;;20.15;13.25;;;7.60;99.90;;;;;;5049422;28;20028;-63
2022/03/31 07:11:32;;;;;;;20.52;13.43;;;7.60;99.90;;;;;;5044647;28;20026;-66
2022/03/31 07:14:01;;;;;;;24.58;14.73;;;7.70;99.90;;;;;;5045252;28;20052;-69
2022/03/31 07:16:28;;;;;;;23.90;13.68;;;7.70;99.90;;;;;;5043310;28;20033;-72
2022/03/31 07:18:55;;;;;;;24.52;13.60;;;7.80;99.90;;;;;;5042611;28;20029;-67
2022/03/31 07:21:21;;;;;;;25.60;14.88;;;8.30;99.90;;;;;;5044585;28;20466;-66
2022/03/31 07:23:48;;;;;;;24.65;15.25;;;8.20;99.90;;;;;;5051958;28;20025;-69
2022/03/31 07:26:15;;;;;;;23.75;14.77;;;8.10;99.90;;;;;;5051828;28;20387;-68
2022/03/31 07:28:43;;;;;;;22.58;14.48;;;8.00;99.90;;;;;;5054306;28;20037;-64
2022/03/31 07:31:09;;;;;;;29.00;15.52;;;8.00;99.90;;;;;;5045483;28;20454;-64
2022/03/31 07:33:35;;;;;;;27.85;13.95;;;8.00;99.90;;;;;;5053227;28;20116;-63
2022/03/31 07:36:06;;;;;;;23.77;13.93;;;8.00;99.90;;;;;;5053770;28;20029;-66
2022/03/31 07:38:35;;;;;;;26.90;14.52;;;8.00;99.90;;;;;;5053149;28;20028;-68
2022/03/31 07:41:01;;;;;;;27.00;9.30;;;8.10;99.90;;;;;;5053853;28;20029;-67
2022/03/31 07:43:27;;;;;;;22.50;14.35;;;8.50;99.90;;;;;;5046057;28;20469;-67
2022/03/31 07:45:54;;;;;;;20.92;13.90;;;9.30;99.90;;;;;;5065270;28;20056;-65
2022/03/31 07:48:21;;;;;;;22.63;14.38;;;9.10;99.90;;;;;;5044890;28;20033;-63
2022/03/31 07:50:47;;;;;;;21.83;13.95;;;8.60;99.90;;;;;;5051511;28;20021;-63
2022/03/31 07:53:13;;;;;;;26.13;14.80;;;8.50;99.90;;;;;;5037496;28;20032;-63
2022/03/31 07:55:39;;;;;;;35.42;16.27;;;8.30;99.90;;;;;;5046669;28;20025;-63
2022/03/31 07:58:05;;;;;;;25.17;13.25;;;8.30;99.90;;;;;;5039081;28;20395;-66
2022/03/31 08:00:31;;;;;;;38.17;17.63;;;8.30;99.90;;;;;;5031935;28;20033;-64
2022/03/31 08:02:58;;;;;;;36.92;17.45;;;8.30;99.90;;;;;;5032572;28;20505;-62
2022/03/31 08:05:27;;;;;;;26.30;14.02;;;8.20;99.90;;;;;;5032040;28;20028;-63
2022/03/31 08:07:54;;;;;;;23.50;14.35;;;8.40;99.90;;;;;;5031766;28;20057;-62
2022/03/31 08:10:21;;;;;;;29.80;14.93;;;8.40;99.90;;;;;;5031922;28;20428;-63
2022/03/31 08:12:46;;;;;;;26.27;14.88;;;8.40;99.90;;;;;;5032246;28;20118;-63
2022/03/31 08:15:15;;;;;;;24.35;15.00;;;8.40;99.90;;;;;;5031526;28;20033;-64
2022/03/31 08:17:42;;;;;;;24.83;14.55;;;8.40;99.90;;;;;;5033889;28;20060;-62
2022/03/31 08:20:10;;;;;;;27.17;15.50;;;8.50;99.90;;;;;;5031892;28;20071;-70
2022/03/31 08:22:37;;;;;;;28.55;16.13;;;8.50;99.90;;;;;;5032214;28;20112;-63
2022/03/31 08:25:03;;;;;;;28.70;16.02;;;8.50;99.90;;;;;;5032420;28;20026;-62
2022/03/31 08:27:30;;;;;;;30.77;17.13;;;8.50;99.90;;;;;;5032759;28;20140;-63
2022/03/31 08:29:56;;;;;;;27.15;15.77;;;8.50;99.90;;;;;;5033480;28;20034;-63
2022/03/31 08:32:21;;;;;;;24.80;14.68;;;8.60;99.90;;;;;;5032654;28;20068;-64
2022/03/31 08:34:47;;;;;;;24.23;15.52;;;8.60;99.90;;;;;;5033072;28;20033;-64
2022/03/31 08:37:14;;;;;;;27.77;13.88;;;8.60;99.90;;;;;;5032773;28;20028;-64
2022/03/31 08:39:40;;;;;;;22.42;14.50;;;8.50;99.90;;;;;;5033393;28;20026;-65
2022/03/31 08:42:06;;;;;;;27.10;15.60;;;8.50;99.90;;;;;;5032131;28;20026;-62
2022/03/31 08:44:34;;;;;;;32.97;16.02;;;8.60;99.90;;;;;;5032175;28;20021;-63
2022/03/31 08:47:00;;;;;;;33.13;15.38;;;8.80;99.90;;;;;;5032965;28;20078;-65
2022/03/31 08:49:28;;;;;;;24.00;15.85;;;8.70;99.90;;;;;;5032090;28;20033;-66
2022/03/31 08:51:54;;;;;;;28.00;15.18;;;8.70;99.90;;;;;;5033044;28;20021;-65
2022/03/31 08:54:20;;;;;;;22.30;15.18;;;8.80;99.90;;;;;;5032743;28;20176;-66
2022/03/31 08:56:46;;;;;;;26.50;16.38;;;8.90;99.90;;;;;;5031872;28;20159;-65
2022/03/31 08:59:11;;;;;;;27.98;16.05;;;9.00;99.90;;;;;;5065941;28;20500;-65
2022/03/31 09:01:40;;;;;;;28.85;15.52;;;9.10;99.90;;;;;;5072127;28;20477;-63
2022/03/31 09:04:17;;;;;;;24.67;16.45;;;9.20;99.90;;;;;;5068726;28;20035;-63
2022/03/31 09:06:43;;;;;;;25.80;14.75;;;9.30;99.90;;;;;;5050696;28;20071;-63
2022/03/31 09:09:12;;;;;;;24.38;14.60;;;9.30;99.90;;;;;;5067606;28;20072;-62
2022/03/31 09:11:38;;;;;;;23.27;15.57;;;9.40;99.90;;;;;;5072958;28;20064;-65
2022/03/31 09:14:05;;;;;;;25.55;15.23;;;9.40;99.90;;;;;;5073336;28;20059;-63
2022/03/31 09:16:40;;;;;;;23.35;15.20;;;9.50;99.90;;;;;;5054308;28;20441;-66
2022/03/31 09:19:15;;;;;;;26.83;15.88;;;9.60;99.90;;;;;;5072434;28;20494;-64
2022/03/31 09:21:57;;;;;;;23.58;14.82;;;9.60;99.90;;;;;;5054958;28;20495;-63
2022/03/31 09:24:27;;;;;;;22.00;14.77;;;9.60;99.90;;;;;;5045501;28;20032;-65
2022/03/31 09:26:53;;;;;;;20.88;14.00;;;9.70;99.90;;;;;;5035080;28;20036;-63
2022/03/31 09:29:24;;;;;;;22.80;14.73;;;9.60;99.90;;;;;;5034075;28;20087;-67
2022/03/31 09:31:54;;;;;;;21.50;14.90;;;9.80;99.90;;;;;;5034442;28;20068;-63
2022/03/31 09:34:20;;;;;;;23.83;15.88;;;9.80;99.90;;;;;;5051716;28;20453;-64
2022/03/31 09:36:53;;;;;;;26.05;15.95;;;10.00;99.90;;;;;;5052846;28;20108;-63
2022/03/31 09:39:20;;;;;;;26.05;15.43;;;10.10;99.90;;;;;;5055042;28;20477;-63
2022/03/31 09:41:50;;;;;;;32.95;16.50;;;10.20;99.90;;;;;;5072435;28;20037;-69
2022/03/31 09:44:25;;;;;;;28.83;17.02;;;10.30;99.90;;;;;;5054750;28;20029;-72
2022/03/31 09:46:51;;;;;;;25.15;16.65;;;10.20;99.90;;;;;;5072455;28;20107;-63
2022/03/31 09:49:19;;;;;;;24.55;16.52;;;10.20;99.90;;;;;;5070894;28;20032;-76
2022/03/31 09:51:49;;;;;;;21.23;15.77;;;10.30;99.90;;;;;;5057556;28;20112;-63
2022/03/31 09:54:16;;;;;;;27.52;15.10;;;10.30;99.90;;;;;;5050941;28;20025;-72
2022/03/31 09:56:42;;;;;;;23.40;15.38;;;10.20;99.90;;;;;;5052380;28;20459;-63
2022/03/31 09:59:11;;;;;;;23.95;15.25;;;10.40;99.90;;;;;;5054086;28;20161;-64
2022/03/31 10:01:38;;;;;;;22.45;15.15;;;10.30;99.90;;;;;;5035749;28;20055;-68
2022/03/31 10:04:09;;;;;;;24.13;14.80;;;10.30;99.90;;;;;;5052029;28;20086;-65
2022/03/31 10:06:37;;;;;;;25.67;15.38;;;10.30;99.90;;;;;;5052064;28;20215;-67
2022/03/31 10:09:08;;;;;;;29.30;16.27;;;10.30;99.90;;;;;;5052577;28;20041;-69
2022/03/31 10:11:41;;;;;;;24.42;16.13;;;10.20;99.90;;;;;;5034608;28;20037;-65
2022/03/31 10:14:26;;;;;;;24.60;16.23;;;10.20;99.90;;;;;;5037519;28;20075;-66
2022/03/31 10:16:57;;;;;;;25.50;16.42;;;10.10;99.90;;;;;;5052092;28;20028;-64
2022/03/31 10:19:39;;;;;;;26.48;17.23;;;10.10;99.90;;;;;;5074372;28;20024;-66
2022/03/31 10:25:10;;;;;;;23.77;16.80;;;10.10;99.90;;;;;;5067274;28;20024;-67
2022/03/31 10:27:40;;;;;;;24.10;16.05;;;10.10;99.90;;;;;;5066689;28;20037;-71
2022/03/31 10:30:22;;;;;;;25.40;16.88;;;10.00;99.90;;;;;;5068219;28;20111;-66
2022/03/31 10:32:58;;;;;;;22.08;15.38;;;9.90;99.90;;;;;;5049094;28;20040;-68
2022/03/31 10:35:29;;;;;;;25.02;16.65;;;10.00;99.90;;;;;;5055613;28;20055;-64
2022/03/31 10:37:56;;;;;;;26.23;15.88;;;10.00;99.90;;;;;;5055735;28;20033;-64
2022/03/31 10:40:34;;;;;;;24.30;15.73;;;10.10;99.90;;;;;;5054256;28;20078;-67
2022/03/31 10:43:01;;;;;;;22.77;15.35;;;10.10;99.90;;;;;;5054940;28;20151;-66
2022/03/31 10:45:42;;;;;;;23.05;16.77;;;10.00;99.90;;;;;;5053784;28;20040;-65
2022/03/31 10:48:18;;;;;;;26.05;15.55;;;10.00;99.90;;;;;;5037102;28;20047;-64
2022/03/31 10:50:44;;;;;;;23.23;15.63;;;10.00;99.90;;;;;;5054190;28;20040;-68
2022/03/31 10:53:10;;;;;;;24.38;15.15;;;10.00;99.90;;;;;;5064017;28;20039;-67
2022/03/31 10:55:40;;;;;;;22.92;15.30;;;10.10;99.90;;;;;;5050960;28;20013;-65
2022/03/31 10:58:07;;;;;;;22.30;15.95;;;10.20;99.90;;;;;;5057810;28;20059;-67
2022/03/31 11:00:33;;;;;;;24.25;16.02;;;10.20;99.90;;;;;;5074782;28;20099;-63
2022/03/31 11:02:59;;;;;;;22.70;14.85;;;10.30;99.90;;;;;;5056240;28;20151;-64
2022/03/31 11:05:25;;;;;;;21.48;14.25;;;10.30;99.90;;;;;;5056292;28;20347;-67
2022/03/31 11:08:16;;;;;;;21.52;15.75;;;10.40;99.90;;;;;;5074790;28;20032;-63
2022/03/31 11:10:45;;;;;;;25.38;16.13;;;10.40;99.90;;;;;;5067904;28;20075;-64
2022/03/31 11:13:12;;;;;;;23.02;15.32;;;10.40;99.90;;;;;;5056521;28;20036;-64
2022/03/31 11:15:38;;;;;;;22.40;14.95;;;10.20;99.90;;;;;;5038152;28;20107;-63
2022/03/31 11:18:04;;;;;;;24.70;16.63;;;10.20;99.90;;;;;;5052004;28;20036;-62
2022/03/31 11:20:30;;;;;;;23.50;15.30;;;10.20;99.90;;;;;;5072794;28;20059;-63
2022/03/31 11:23:00;;;;;;;26.10;15.98;;;10.20;99.90;;;;;;5055182;28;20033;-64
2022/03/31 11:25:27;;;;;;;24.10;15.65;;;10.20;99.90;;;;;;5071815;28;20097;-64
2022/03/31 11:27:53;;;;;;;29.58;15.70;;;10.20;99.90;;;;;;5061846;28;20032;-66
2022/03/31 11:30:22;;;;;;;25.65;17.88;;;10.20;99.90;;;;;;5072929;28;20035;-64
2022/03/31 11:32:57;;;;;;;23.70;15.52;;;10.20;99.90;;;;;;5073343;28;20033;-65
2022/03/31 11:35:25;;;;;;;21.35;14.82;;;10.30;99.90;;;;;;5055613;28;20029;-70
2022/03/31 11:37:57;;;;;;;31.45;15.98;;;10.40;99.90;;;;;;5073616;28;20432;-67
2022/03/31 11:40:35;;;;;;;21.40;15.93;;;10.50;99.90;;;;;;5072534;28;20056;-71
2022/03/31 11:43:37;;;;;;;20.88;15.13;;;10.40;99.90;;;;;;5123379;27;20358;-67
2022/03/31 11:46:03;;;;;;;21.70;15.50;;;10.60;99.90;;;;;;5088480;28;20035;-65
2022/03/31 11:48:32;;;;;;;22.95;15.65;;;10.50;99.90;;;;;;5108860;28;20369;-63
2022/03/31 11:51:01;;;;;;;23.98;16.23;;;10.50;99.90;;;;;;5088185;28;20020;-65
2022/03/31 11:53:33;;;;;;;25.42;14.25;;;10.60;99.90;;;;;;5091026;28;20119;-64
2022/03/31 11:56:11;;;;;;;19.85;14.55;;;10.40;99.90;;;;;;5110011;28;20319;-65
2022/03/31 11:58:46;;;;;;;23.23;15.07;;;10.40;99.90;;;;;;5103390;28;20250;-69
2022/03/31 12:01:17;;;;;;;20.98;14.13;;;10.40;99.90;;;;;;5091701;28;20031;-68
2022/03/31 12:03:42;;;;;;;18.80;14.40;;;10.60;99.90;;;;;;5091415;28;20027;-66
2022/03/31 12:06:10;;;;;;;20.75;15.20;;;10.80;99.90;;;;;;5089260;28;20024;-66
2022/03/31 12:08:38;;;;;;;23.42;14.50;;;10.90;99.90;;;;;;5076652;28;20028;-65
2022/03/31 12:11:05;;;;;;;20.33;13.73;;;10.90;99.90;;;;;;5103770;28;20043;-64
2022/03/31 12:13:30;;;;;;;20.00;14.63;;;11.00;99.90;;;;;;5078435;28;20032;-65
2022/03/31 12:16:05;;;;;;;20.00;14.70;;;11.00;99.90;;;;;;5090506;28;20026;-65
2022/03/31 12:18:33;;;;;;;19.42;13.45;;;11.10;99.90;;;;;;5100423;28;20024;-65
2022/03/31 12:21:00;;;;;;;25.60;14.57;;;11.30;99.90;;;;;;5110075;28;20024;-65
2022/03/31 12:23:26;;;;;;;21.70;14.60;;;11.40;99.90;;;;;;5109484;28;20036;-67
2022/03/31 12:25:52;;;;;;;20.48;14.60;;;11.50;99.90;;;;;;5109701;28;20069;-64
2022/03/31 12:28:23;;;;;;;20.52;14.23;;;11.90;99.90;;;;;;5109375;28;20406;-66
2022/03/31 12:30:54;;;;;;;21.92;14.00;;;11.80;99.80;;;;;;5102324;28;20027;-64
2022/03/31 12:33:34;;;;;;;16.95;13.15;;;11.90;99.90;;;;;;5101254;28;20115;-66
2022/03/31 12:36:08;;;;;;;19.80;13.77;;;11.70;99.90;;;;;;5107993;28;20507;-64
2022/03/31 12:38:38;;;;;;;19.48;13.52;;;11.90;99.90;;;;;;5106268;28;20354;-65
2022/03/31 12:41:18;;;;;;;20.55;14.50;;;11.90;99.90;;;;;;5108686;28;20431;-68
2022/03/31 12:44:15;;;;;;;18.52;13.80;;;11.80;99.90;;;;;;5101928;28;20518;-65
2022/03/31 12:46:56;;;;;;;18.75;13.45;;;11.60;99.90;;;;;;5088221;28;20043;-65